Time;durP1;ratioP1;P1;durP2;ratioP2;P2;SDS_P1;SDS_P2;PMS_P1;PMS_P2;Temp;Humidity;BMP_temperature;BMP_pressure;BME280_temperature;BME280_humidity;BME280_pressure;Samples;Min_cycle;Max_cycle;Signal;HPM_P1;HPM_P2
2020/12/10 00:01:26;;;;;;;41.80;17.03;;;;;;;-1.14;100.00;100464.72;4929566;29;20242;-74
2020/12/10 00:03:52;;;;;;;48.90;18.70;;;;;;;-1.14;100.00;100472.41;4937338;29;20243;-73
2020/12/10 00:06:19;;;;;;;57.27;20.13;;;;;;;-1.27;100.00;100467.88;4932546;28;20294;-74
2020/12/10 00:08:45;;;;;;;58.13;19.67;;;;;;;-1.28;100.00;100468.72;4936555;29;20238;-73
2020/12/10 00:11:11;;;;;;;56.47;19.17;;;;;;;-1.31;100.00;100459.28;4933071;29;20254;-74
2020/12/10 00:13:37;;;;;;;57.67;20.30;;;;;;;-1.35;100.00;100463.47;4947170;28;20222;-74
2020/12/10 00:16:03;;;;;;;49.07;17.70;;;;;;;-1.36;100.00;100456.63;4937434;29;20203;-74
2020/12/10 00:18:29;;;;;;;46.37;17.27;;;;;;;-1.35;100.00;100454.94;4943041;29;20230;-73
2020/12/10 00:20:55;;;;;;;54.40;18.40;;;;;;;-1.32;100.00;100442.19;4940029;29;20223;-74
2020/12/10 00:23:21;;;;;;;54.97;18.60;;;;;;;-1.35;100.00;100449.81;4952918;28;20227;-74
2020/12/10 00:25:47;;;;;;;47.00;17.73;;;;;;;-1.39;100.00;100446.34;4937051;29;20223;-74
2020/12/10 00:28:13;;;;;;;44.17;18.17;;;;;;;-1.37;100.00;100447.22;4936848;29;20215;-73
2020/12/10 00:30:39;;;;;;;48.97;17.03;;;;;;;-1.38;100.00;100447.19;4935159;29;20274;-74
2020/12/10 00:33:05;;;;;;;47.03;17.40;;;;;;;-1.40;100.00;100449.72;4937546;29;20215;-74
2020/12/10 00:35:30;;;;;;;51.40;18.50;;;;;;;-1.40;100.00;100447.16;4941472;29;20207;-74
2020/12/10 00:37:56;;;;;;;45.03;17.70;;;;;;;-1.38;100.00;100445.50;4937639;28;20207;-74
2020/12/10 00:40:23;;;;;;;52.27;18.03;;;;;;;-1.37;100.00;100441.25;4936310;29;20625;-74
2020/12/10 00:42:49;;;;;;;49.57;17.43;;;;;;;-1.38;100.00;100436.97;4936254;29;20227;-74
2020/12/10 00:45:15;;;;;;;48.60;16.63;;;;;;;-1.43;100.00;100438.56;4935805;29;20238;-74
2020/12/10 00:47:40;;;;;;;47.60;17.53;;;;;;;-1.43;100.00;100433.47;4955677;28;20610;-74
2020/12/10 00:50:08;;;;;;;41.17;15.73;;;;;;;-1.44;100.00;100435.16;4937162;29;20199;-74
2020/12/10 00:52:35;;;;;;;41.03;16.87;;;;;;;-1.47;100.00;100436.78;4953086;28;20227;-74
2020/12/10 00:55:09;;;;;;;47.57;15.77;;;;;;;-1.44;100.00;100442.84;4933353;29;20206;-73
2020/12/10 00:57:37;;;;;;;35.80;16.10;;;;;;;-1.48;100.00;100430.78;4950710;28;20196;-74
2020/12/10 01:00:05;;;;;;;45.80;17.03;;;;;;;-1.50;100.00;100429.06;4937052;29;20238;-74
2020/12/10 01:02:31;;;;;;;45.37;17.67;;;;;;;-1.46;100.00;100426.59;4938453;29;20226;-74
2020/12/10 01:04:57;;;;;;;50.97;16.77;;;;;;;-1.47;100.00;100429.97;4938034;28;20207;-74
2020/12/10 01:07:23;;;;;;;45.43;17.43;;;;;;;-1.48;100.00;100424.81;4939110;29;20282;-74
2020/12/10 01:09:49;;;;;;;48.63;18.53;;;;;;;-1.47;100.00;100429.13;4950951;28;20211;-72
2020/12/10 01:12:14;;;;;;;41.17;16.77;;;;;;;-1.52;100.00;100422.19;4952096;28;20262;-73
2020/12/10 01:14:41;;;;;;;45.47;16.17;;;;;;;-1.57;100.00;100421.25;4952548;28;20258;-74
2020/12/10 01:17:07;;;;;;;47.27;18.27;;;;;;;-1.56;100.00;100414.47;4937859;29;20195;-73
2020/12/10 01:19:33;;;;;;;43.30;17.87;;;;;;;-1.61;100.00;100409.25;4936021;29;20230;-73
2020/12/10 01:21:59;;;;;;;42.60;16.37;;;;;;;-1.62;100.00;100399.88;4934384;28;20313;-73
2020/12/10 01:24:25;;;;;;;53.07;18.17;;;;;;;-1.63;100.00;100397.28;4937549;29;20227;-74
2020/12/10 01:26:51;;;;;;;40.10;16.87;;;;;;;-1.65;100.00;100396.34;4936696;29;20219;-73
2020/12/10 01:29:16;;;;;;;37.47;14.83;;;;;;;-1.67;100.00;100400.56;4940932;28;20200;-74
2020/12/10 01:31:46;;;;;;;43.10;14.83;;;;;;;-1.62;100.00;100397.31;4950127;28;20266;-74
2020/12/10 01:34:12;;;;;;;42.03;15.70;;;;;;;-1.61;100.00;100393.91;4942090;28;20595;-74
2020/12/10 01:36:38;;;;;;;42.40;16.70;;;;;;;-1.69;100.00;100387.75;4934741;29;20199;-73
2020/12/10 01:39:04;;;;;;;41.27;14.80;;;;;;;-1.73;100.00;100380.88;4934586;29;20203;-73
2020/12/10 01:41:33;;;;;;;38.37;15.30;;;;;;;-1.76;100.00;100389.34;4931298;29;20200;-73
2020/12/10 01:44:04;;;;;;;44.37;16.60;;;;;;;-1.78;100.00;100388.44;4953411;28;20238;-73
2020/12/10 01:46:30;;;;;;;41.70;16.47;;;;;;;-1.78;100.00;100388.44;4931244;29;20687;-73
2020/12/10 01:48:57;;;;;;;43.90;16.40;;;;;;;-1.80;100.00;100390.09;4937802;28;20213;-73
2020/12/10 01:51:23;;;;;;;41.83;15.40;;;;;;;-1.83;100.00;100395.19;4934109;29;20208;-73
2020/12/10 01:53:49;;;;;;;47.50;14.80;;;;;;;-1.85;100.00;100385.75;4932232;29;20235;-72
2020/12/10 01:56:15;;;;;;;41.23;16.70;;;;;;;-1.83;100.00;100386.63;4928230;29;20703;-72
2020/12/10 01:58:41;;;;;;;48.10;16.87;;;;;;;-1.82;100.00;100396.03;4934576;29;20203;-73
2020/12/10 02:01:07;;;;;;;39.43;16.40;;;;;;;-1.82;100.00;100381.56;4931189;29;20203;-73
2020/12/10 02:03:33;;;;;;;37.93;14.83;;;;;;;-1.81;100.00;100372.19;4933088;29;20323;-72
2020/12/10 02:05:59;;;;;;;32.13;13.93;;;;;;;-1.86;100.00;100376.38;4929529;29;20216;-73
2020/12/10 02:08:25;;;;;;;36.13;15.20;;;;;;;-1.87;100.00;100367.81;4931745;29;20205;-73
2020/12/10 02:10:51;;;;;;;47.77;15.63;;;;;;;-1.88;100.00;100366.09;4932749;29;20283;-73
2020/12/10 02:13:17;;;;;;;37.87;15.80;;;;;;;-1.87;100.00;100370.38;4937740;29;20224;-73
2020/12/10 02:15:47;;;;;;;41.93;17.40;;;;;;;-1.89;100.00;100355.84;4927145;28;20266;-73
2020/12/10 02:18:13;;;;;;;36.67;15.60;;;;;;;-1.87;100.00;100355.03;4932093;29;20238;-73
2020/12/10 02:20:39;;;;;;;43.80;16.70;;;;;;;-1.88;100.00;100353.31;4924266;29;20795;-72
2020/12/10 02:23:07;;;;;;;49.43;17.03;;;;;;;-1.94;100.00;100361.72;4931533;29;20215;-72
2020/12/10 02:25:33;;;;;;;41.17;14.93;;;;;;;-1.89;100.00;100363.50;4927725;29;20226;-73
2020/12/10 02:28:01;;;;;;;40.13;14.67;;;;;;;-1.94;100.00;100355.75;4935122;28;20540;-73
2020/12/10 02:30:27;;;;;;;38.97;14.63;;;;;;;-1.97;100.00;100351.44;4928110;29;20234;-73
2020/12/10 02:32:57;;;;;;;37.93;15.80;;;;;;;-1.98;100.00;100352.28;4932898;29;20223;-73
2020/12/10 02:35:26;;;;;;;37.43;14.67;;;;;;;-1.97;100.00;100350.56;4932207;29;20222;-73
2020/12/10 02:37:53;;;;;;;39.03;14.70;;;;;;;-1.99;100.00;100350.53;4949317;28;20250;-73
2020/12/10 02:40:20;;;;;;;39.13;14.60;;;;;;;-1.99;100.00;100353.09;4927938;29;20207;-73
2020/12/10 02:42:46;;;;;;;35.47;14.43;;;;;;;-1.96;100.00;100349.75;4932037;29;20231;-73
2020/12/10 02:45:11;;;;;;;37.27;15.53;;;;;;;-1.97;100.00;100353.13;4931393;29;20207;-73
2020/12/10 02:47:37;;;;;;;39.80;14.83;;;;;;;-1.95;100.00;100352.34;4932902;29;20223;-73
2020/12/10 02:50:04;;;;;;;38.07;14.37;;;;;;;-1.91;100.00;100360.94;4931093;29;20231;-73
2020/12/10 02:52:30;;;;;;;36.37;14.43;;;;;;;-1.92;100.00;100351.53;4932521;29;20731;-73
2020/12/10 02:54:56;;;;;;;41.93;15.63;;;;;;;-1.97;100.00;100350.56;4928828;29;20211;-73
2020/12/10 02:57:22;;;;;;;39.53;15.37;;;;;;;-2.00;100.00;100348.81;4935260;28;20623;-72
2020/12/10 02:59:48;;;;;;;33.53;13.80;;;;;;;-1.94;100.00;100342.97;4927066;29;20222;-73
2020/12/10 03:02:14;;;;;;;33.77;13.27;;;;;;;-1.94;100.00;100346.38;4935576;28;20226;-73
2020/12/10 03:04:40;;;;;;;31.37;14.03;;;;;;;-1.92;100.00;100341.28;4933669;29;20203;-73
2020/12/10 03:07:06;;;;;;;40.00;14.60;;;;;;;-1.91;100.00;100341.34;4931658;29;20211;-73
2020/12/10 03:09:32;;;;;;;37.57;13.93;;;;;;;-1.84;100.00;100338.91;4924660;29;20212;-73
2020/12/10 03:11:57;;;;;;;34.57;13.43;;;;;;;-1.91;100.00;100336.22;4929418;29;20320;-73
2020/12/10 03:14:24;;;;;;;41.17;14.83;;;;;;;-1.95;100.00;100331.91;4930877;28;20206;-73
2020/12/10 03:16:50;;;;;;;42.57;15.77;;;;;;;-1.91;100.00;100326.00;4934537;29;20203;-73
2020/12/10 03:19:18;;;;;;;40.63;16.93;;;;;;;-1.91;100.00;100320.03;4929365;29;20246;-73
2020/12/10 03:21:44;;;;;;;35.87;14.50;;;;;;;-1.94;100.00;100318.25;4933883;29;20664;-73
2020/12/10 03:24:09;;;;;;;36.40;13.63;;;;;;;-1.94;100.00;100314.84;4929214;28;20290;-73
2020/12/10 03:26:37;;;;;;;28.67;12.57;;;;;;;-1.95;100.00;100315.72;4936049;29;20312;-73
2020/12/10 03:29:07;;;;;;;36.97;13.80;;;;;;;-1.96;100.00;100312.25;4933899;29;20207;-73
2020/12/10 03:31:34;;;;;;;36.30;13.23;;;;;;;-2.00;100.00;100307.09;4930093;29;20230;-73
2020/12/10 03:34:00;;;;;;;33.47;14.03;;;;;;;-2.00;100.00;100310.50;4936198;28;20219;-73
2020/12/10 03:36:26;;;;;;;40.63;14.87;;;;;;;-1.99;100.00;100314.75;4930345;29;20271;-73
2020/12/10 03:38:52;;;;;;;43.93;15.10;;;;;;;-2.00;100.00;100307.94;4930720;29;20294;-73
2020/12/10 03:41:18;;;;;;;34.00;14.60;;;;;;;-1.97;100.00;100315.66;4927410;29;20814;-72
2020/12/10 03:43:44;;;;;;;41.93;14.57;;;;;;;-1.94;100.00;100307.19;4929537;29;20258;-73
2020/12/10 03:46:10;;;;;;;38.60;14.00;;;;;;;-1.91;100.00;100320.03;4928545;29;20211;-73
2020/12/10 03:48:36;;;;;;;36.50;13.53;;;;;;;-1.90;100.00;100308.97;4929883;29;20282;-73
2020/12/10 03:51:02;;;;;;;40.53;14.97;;;;;;;-1.96;100.00;100313.97;4929496;29;20575;-73
2020/12/10 03:53:28;;;;;;;42.67;14.03;;;;;;;-1.94;100.00;100304.63;4934319;29;20234;-73
2020/12/10 03:55:54;;;;;;;39.43;14.77;;;;;;;-1.97;100.00;100305.44;4933490;29;20313;-73
2020/12/10 03:58:20;;;;;;;37.63;14.23;;;;;;;-1.95;100.00;100303.78;4935839;29;20210;-73
2020/12/10 04:00:46;;;;;;;39.93;14.40;;;;;;;-1.96;100.00;100298.63;4931767;29;20198;-72
2020/12/10 04:03:12;;;;;;;36.90;13.63;;;;;;;-1.93;100.00;100298.72;4950016;28;20238;-72
2020/12/10 04:05:39;;;;;;;38.87;14.87;;;;;;;-1.94;99.62;100299.53;4931828;29;20219;-72
2020/12/10 04:08:05;;;;;;;35.20;13.00;;;;;;;-1.97;99.46;100302.00;4934625;29;20250;-73
2020/12/10 04:10:30;;;;;;;32.00;12.90;;;;;;;-1.97;98.92;100300.34;4934140;29;20788;-73
2020/12/10 04:12:56;;;;;;;34.77;14.07;;;;;;;-1.99;99.24;100301.97;4933870;29;20651;-72
2020/12/10 04:15:22;;;;;;;27.97;12.43;;;;;;;-2.04;99.14;100293.38;4933604;29;20207;-73
2020/12/10 04:17:48;;;;;;;33.60;13.93;;;;;;;-2.01;99.07;100293.44;4940595;29;20599;-72
2020/12/10 04:20:14;;;;;;;34.93;13.20;;;;;;;-1.94;99.38;100294.41;4932579;29;20265;-73
2020/12/10 04:22:41;;;;;;;36.67;13.60;;;;;;;-1.93;99.39;100297.00;4939012;29;20299;-73
2020/12/10 04:25:07;;;;;;;33.93;13.37;;;;;;;-1.94;99.43;100294.41;4932795;29;20200;-73
2020/12/10 04:27:32;;;;;;;34.37;14.13;;;;;;;-1.97;99.54;100294.34;4933711;28;20859;-73
2020/12/10 04:29:58;;;;;;;37.93;14.77;;;;;;;-1.97;99.62;100300.34;4933128;29;20211;-72
2020/12/10 04:32:24;;;;;;;31.33;14.37;;;;;;;-1.98;99.45;100290.09;4933987;28;20223;-73
2020/12/10 04:34:50;;;;;;;43.53;14.80;;;;;;;-1.99;99.86;100293.47;4931560;29;20289;-73
2020/12/10 04:37:16;;;;;;;44.23;15.93;;;;;;;-1.98;100.00;100296.06;4938450;28;20259;-73
2020/12/10 04:39:42;;;;;;;36.67;13.90;;;;;;;-1.98;99.98;100305.41;4933660;28;20231;-73
2020/12/10 04:42:09;;;;;;;40.70;14.73;;;;;;;-1.97;99.80;100304.56;4933759;29;20213;-73
2020/12/10 04:44:36;;;;;;;30.77;12.77;;;;;;;-1.96;99.76;100307.16;4933659;29;20298;-73
2020/12/10 04:47:03;;;;;;;36.03;14.63;;;;;;;-1.93;99.76;100311.47;4933890;29;20219;-72
2020/12/10 04:49:29;;;;;;;37.50;14.47;;;;;;;-1.94;100.00;100318.25;4931810;29;20702;-72
2020/12/10 04:51:56;;;;;;;37.40;14.50;;;;;;;-1.98;100.00;100311.38;4933015;28;20206;-73
2020/12/10 04:54:23;;;;;;;41.23;15.70;;;;;;;-1.99;100.00;100312.19;4931244;28;20210;-73
2020/12/10 04:56:50;;;;;;;42.87;14.63;;;;;;;-1.99;100.00;100311.34;4933616;29;20208;-73
2020/12/10 04:59:15;;;;;;;33.33;12.87;;;;;;;-1.96;100.00;100316.53;4935140;28;20191;-73
2020/12/10 05:01:43;;;;;;;41.23;14.57;;;;;;;-1.97;100.00;100305.44;4936010;29;20203;-72
2020/12/10 05:04:09;;;;;;;36.20;14.60;;;;;;;-1.92;100.00;100308.06;4932080;29;20233;-73
2020/12/10 05:06:35;;;;;;;39.90;14.13;;;;;;;-1.93;100.00;100308.94;4932224;29;20231;-73
2020/12/10 05:09:08;;;;;;;43.63;14.37;;;;;;;-1.92;100.00;100303.84;4930189;29;20726;-73
2020/12/10 05:11:36;;;;;;;36.40;13.83;;;;;;;-1.94;100.00;100304.63;4933830;29;20207;-73
2020/12/10 05:14:03;;;;;;;39.07;14.00;;;;;;;-1.93;100.00;100301.25;4931792;29;20698;-73
2020/12/10 05:16:29;;;;;;;38.57;14.77;;;;;;;-1.91;100.00;100300.44;4931164;29;20207;-73
2020/12/10 05:18:55;;;;;;;36.03;15.50;;;;;;;-1.89;100.00;100308.16;4929343;28;20255;-73
2020/12/10 05:21:21;;;;;;;36.43;14.40;;;;;;;-1.93;100.00;100317.44;4935939;29;20662;-73
2020/12/10 05:23:47;;;;;;;35.70;14.73;;;;;;;-1.88;100.00;100303.88;4929493;29;20292;-73
2020/12/10 05:26:13;;;;;;;42.10;15.53;;;;;;;-1.87;100.00;100301.38;4934545;29;20262;-73
2020/12/10 05:28:44;;;;;;;37.33;14.13;;;;;;;-1.84;100.00;100298.88;4934316;29;20624;-72
2020/12/10 05:31:12;;;;;;;38.97;15.13;;;;;;;-1.83;100.00;100299.72;4932193;29;20226;-73
2020/12/10 05:33:51;;;;;;;44.17;16.57;;;;;;;-1.83;100.00;100295.50;4929990;29;20534;-73
2020/12/10 05:36:17;;;;;;;36.43;13.73;;;;;;;-1.81;100.00;100293.84;4962837;28;20312;-73
2020/12/10 05:38:53;;;;;;;33.93;16.17;;;;;;;-1.76;100.00;100293.91;4928816;29;20680;-73
2020/12/10 05:41:20;;;;;;;46.47;14.40;;;;;;;-1.77;100.00;100290.50;4965971;28;20710;-73
2020/12/10 05:43:46;;;;;;;40.93;14.97;;;;;;;-1.83;100.00;100287.84;4933891;28;20234;-72
2020/12/10 05:46:19;;;;;;;40.10;15.93;;;;;;;-1.81;100.00;100275.94;4933400;29;20629;-72
2020/12/10 05:48:46;;;;;;;41.63;16.03;;;;;;;-1.80;100.00;100282.75;4928645;29;20268;-73
2020/12/10 05:51:16;;;;;;;39.93;14.27;;;;;;;-1.86;100.00;100286.91;4937701;29;20203;-72
2020/12/10 05:53:42;;;;;;;45.57;15.03;;;;;;;-1.84;100.00;100285.25;4932435;28;20231;-73
2020/12/10 05:56:10;;;;;;;36.57;14.63;;;;;;;-1.79;100.00;100286.19;4933651;29;22166;-72
2020/12/10 05:58:47;;;;;;;41.03;15.73;;;;;;;-1.81;100.00;100288.72;4930158;28;20222;-73
2020/12/10 06:01:24;;;;;;;40.80;15.57;;;;;;;-1.85;100.00;100294.59;4929762;29;20654;-73
2020/12/10 06:03:50;;;;;;;36.77;14.80;;;;;;;-1.91;99.96;100290.22;4934879;29;20241;-73
2020/12/10 06:06:20;;;;;;;34.33;14.43;;;;;;;-1.85;100.00;100297.13;4963409;28;20231;-73
2020/12/10 06:08:48;;;;;;;41.17;14.87;;;;;;;-1.87;99.78;100288.59;4928403;29;20207;-73
2020/12/10 06:11:17;;;;;;;33.40;13.13;;;;;;;-1.89;99.51;100297.06;4962121;28;20691;-73
2020/12/10 06:13:43;;;;;;;39.67;14.13;;;;;;;-1.92;99.50;100290.19;4929996;29;20310;-73
2020/12/10 06:16:17;;;;;;;39.50;15.77;;;;;;;-1.95;99.69;100292.72;4965407;28;20823;-72
2020/12/10 06:19:01;;;;;;;39.67;14.50;;;;;;;-1.98;99.60;100287.53;4926946;29;20199;-73
2020/12/10 06:21:32;;;;;;;43.97;14.70;;;;;;;-1.98;99.59;100287.53;4945316;28;20630;-73
2020/12/10 06:23:58;;;;;;;34.93;14.13;;;;;;;-1.99;99.66;100289.19;4961291;28;21100;-73
2020/12/10 06:26:35;;;;;;;39.87;15.20;;;;;;;-1.96;99.93;100289.28;4963913;28;20223;-72
2020/12/10 06:29:18;;;;;;;35.23;14.33;;;;;;;-2.01;99.61;100283.22;4953709;28;20211;-73
2020/12/10 06:32:05;;;;;;;39.97;14.07;;;;;;;-2.00;99.69;100284.09;4933193;29;20282;-73
2020/12/10 06:34:37;;;;;;;41.57;15.13;;;;;;;-2.00;99.57;100276.44;4930440;29;20231;-73
2020/12/10 06:37:20;;;;;;;38.03;14.07;;;;;;;-1.98;99.58;100272.19;4935228;29;20203;-72
2020/12/10 06:39:48;;;;;;;35.90;14.47;;;;;;;-1.98;99.41;100273.06;4927197;29;20229;-73
2020/12/10 06:42:14;;;;;;;41.23;15.47;;;;;;;-1.99;99.81;100271.31;4934477;29;20552;-73
2020/12/10 06:44:40;;;;;;;40.03;16.03;;;;;;;-1.99;99.91;100276.44;4929398;29;20355;-72
2020/12/10 06:47:06;;;;;;;45.20;16.10;;;;;;;-2.00;100.00;100284.94;4934166;29;20317;-72
2020/12/10 06:49:34;;;;;;;38.33;13.97;;;;;;;-2.02;100.00;100278.94;4928496;28;20206;-73
2020/12/10 06:52:12;;;;;;;42.97;15.83;;;;;;;-2.04;100.00;100277.19;4930736;29;20213;-72
2020/12/10 06:55:07;;;;;;;44.93;15.57;;;;;;;-2.07;100.00;100280.53;4927430;29;20230;-72
2020/12/10 06:57:53;;;;;;;34.70;14.20;;;;;;;-2.08;100.00;100275.41;4929744;29;20203;-73
2020/12/10 07:00:45;;;;;;;42.30;14.53;;;;;;;-2.09;100.00;100277.09;4932189;29;20202;-73
2020/12/10 07:03:16;;;;;;;36.90;15.47;;;;;;;-2.08;100.00;100281.38;4927656;29;20242;-73
2020/12/10 07:05:42;;;;;;;39.10;15.63;;;;;;;-2.07;100.00;100274.59;4932080;29;20195;-73
2020/12/10 07:08:10;;;;;;;49.63;16.80;;;;;;;-2.08;100.00;100271.16;4927274;29;20230;-73
2020/12/10 07:10:38;;;;;;;44.27;15.63;;;;;;;-2.08;100.00;100268.59;4961461;28;20215;-72
2020/12/10 07:13:04;;;;;;;36.07;14.73;;;;;;;-2.08;100.00;100265.19;4926560;29;20230;-74
2020/12/10 07:15:30;;;;;;;33.33;14.37;;;;;;;-2.07;100.00;100266.91;4928427;29;20235;-72
2020/12/10 07:17:57;;;;;;;41.20;14.67;;;;;;;-2.06;99.98;100261.81;4930928;29;20201;-74
2020/12/10 07:20:23;;;;;;;37.40;15.17;;;;;;;-2.04;99.90;100261.84;4933730;28;20261;-73
2020/12/10 07:22:49;;;;;;;35.10;14.03;;;;;;;-2.02;99.62;100257.63;4932417;28;21625;-73
2020/12/10 07:25:16;;;;;;;37.67;14.43;;;;;;;-2.03;99.05;100253.38;4929467;28;20210;-73
2020/12/10 07:27:43;;;;;;;42.30;15.37;;;;;;;-2.04;98.76;100264.41;4939328;29;20219;-73
2020/12/10 07:30:09;;;;;;;35.80;15.33;;;;;;;-1.99;98.86;100262.81;4935236;29;20304;-73
2020/12/10 07:32:35;;;;;;;39.90;13.50;;;;;;;-1.98;98.53;100265.38;4934056;29;20237;-73
2020/12/10 07:35:01;;;;;;;39.87;15.67;;;;;;;-1.98;98.46;100260.28;4933320;29;20497;-73
2020/12/10 07:37:30;;;;;;;36.67;15.17;;;;;;;-2.00;98.36;100254.28;4937093;29;20206;-74
2020/12/10 07:39:57;;;;;;;34.33;13.20;;;;;;;-1.97;98.49;100248.34;4933681;29;20215;-73
2020/12/10 07:42:23;;;;;;;39.10;14.13;;;;;;;-1.98;98.27;100251.75;4940609;29;20234;-73
2020/12/10 07:44:50;;;;;;;36.30;14.27;;;;;;;-1.96;98.12;100261.16;4964196;28;20731;-74
2020/12/10 07:47:16;;;;;;;35.77;14.57;;;;;;;-1.93;98.31;100268.03;4934386;29;20211;-73
2020/12/10 07:49:42;;;;;;;43.73;15.37;;;;;;;-1.93;98.64;100265.47;4935933;29;20290;-74
2020/12/10 07:52:09;;;;;;;38.87;14.37;;;;;;;-1.95;98.60;100268.00;4935754;29;20424;-73
2020/12/10 07:54:44;;;;;;;34.87;14.10;;;;;;;-1.97;98.81;100264.56;4932502;29;20195;-73
2020/12/10 07:57:22;;;;;;;41.27;14.83;;;;;;;-1.96;99.05;100267.97;4939808;28;20206;-74
2020/12/10 07:59:55;;;;;;;42.13;15.37;;;;;;;-2.00;99.12;100263.66;4932772;29;20552;-72
2020/12/10 08:02:32;;;;;;;41.83;15.80;;;;;;;-1.97;99.19;100258.56;4936602;29;20221;-73
2020/12/10 08:04:59;;;;;;;36.10;13.57;;;;;;;-2.00;99.30;100264.50;4942980;28;20211;-74
2020/12/10 08:07:24;;;;;;;38.17;15.20;;;;;;;-1.99;99.44;100261.09;4948608;28;20212;-73
2020/12/10 08:09:50;;;;;;;41.53;15.57;;;;;;;-1.98;99.39;100261.97;4934329;29;20222;-74
2020/12/10 08:12:16;;;;;;;47.57;15.77;;;;;;;-1.95;99.70;100262.91;4937209;29;20223;-73
2020/12/10 08:14:42;;;;;;;48.93;15.77;;;;;;;-1.86;99.90;100267.31;4964007;28;20218;-74
2020/12/10 08:17:18;;;;;;;40.10;15.57;;;;;;;-1.83;99.75;100266.50;4932288;29;20212;-73
2020/12/10 08:19:54;;;;;;;41.27;15.80;;;;;;;-1.81;99.80;100280.16;4932013;29;20206;-73
2020/12/10 08:22:20;;;;;;;42.20;15.23;;;;;;;-1.84;99.32;100278.44;4939237;29;20829;-73
2020/12/10 08:24:47;;;;;;;41.53;15.77;;;;;;;-1.83;99.35;100272.50;4930586;29;20211;-73
2020/12/10 08:27:14;;;;;;;39.20;15.20;;;;;;;-1.83;99.45;100281.84;4933214;29;20216;-74
2020/12/10 08:29:57;;;;;;;39.10;15.10;;;;;;;-1.86;99.15;100269.88;4927811;29;20199;-74
2020/12/10 08:32:24;;;;;;;35.73;14.00;;;;;;;-1.86;98.94;100274.13;4935313;29;20215;-73
2020/12/10 08:35:01;;;;;;;42.63;16.27;;;;;;;-1.78;99.22;100283.63;4931618;29;20430;-73
2020/12/10 08:37:36;;;;;;;37.30;14.87;;;;;;;-1.78;99.01;100275.97;4932067;29;20221;-73
2020/12/10 08:40:02;;;;;;;39.03;13.73;;;;;;;-1.75;98.81;100275.19;4935676;29;20202;-74
2020/12/10 08:42:28;;;;;;;42.13;16.17;;;;;;;-1.72;98.79;100276.09;4932801;29;20223;-74
2020/12/10 08:44:54;;;;;;;43.93;15.93;;;;;;;-1.73;98.47;100287.13;4931723;29;20624;-74
2020/12/10 08:47:25;;;;;;;39.30;14.93;;;;;;;-1.67;98.54;100286.41;4932606;29;20275;-73
2020/12/10 08:50:22;;;;;;;31.87;13.23;;;;;;;-1.70;97.85;100288.91;4931415;29;20844;-72
2020/12/10 08:52:49;;;;;;;28.37;12.67;;;;;;;-1.69;97.33;100294.88;4932331;29;20284;-73
2020/12/10 08:55:15;;;;;;;27.13;12.60;;;;;;;-1.61;97.58;100294.19;4932308;29;20200;-74
2020/12/10 08:57:50;;;;;;;35.87;13.87;;;;;;;-1.60;97.30;100282.25;4934977;29;20247;-74
2020/12/10 09:00:16;;;;;;;34.27;14.00;;;;;;;-1.61;97.28;100285.66;4932550;29;20195;-74
2020/12/10 09:02:43;;;;;;;29.97;12.23;;;;;;;-1.62;97.08;100286.47;4933149;29;20227;-74
2020/12/10 09:05:09;;;;;;;32.37;13.43;;;;;;;-1.64;97.33;100290.72;4932136;29;20306;-73
2020/12/10 09:07:35;;;;;;;32.07;13.73;;;;;;;-1.59;97.53;100289.09;4936148;29;20215;-74
2020/12/10 09:10:04;;;;;;;32.60;12.87;;;;;;;-1.63;97.20;100277.09;4932225;29;20199;-73
2020/12/10 09:12:30;;;;;;;39.63;13.80;;;;;;;-1.68;97.26;100279.56;4964196;28;20601;-74
2020/12/10 09:14:56;;;;;;;39.73;14.47;;;;;;;-1.66;96.93;100274.50;4928864;29;20294;-72
2020/12/10 09:17:22;;;;;;;33.60;12.77;;;;;;;-1.63;97.04;100282.22;4932331;29;20274;-74
2020/12/10 09:19:48;;;;;;;32.57;13.37;;;;;;;-1.60;97.18;100279.69;4963090;28;20203;-74
2020/12/10 09:22:14;;;;;;;39.70;14.47;;;;;;;-1.56;96.96;100274.69;4963313;28;20260;-73
2020/12/10 09:24:40;;;;;;;35.60;14.27;;;;;;;-1.61;96.69;100275.44;4931342;29;20433;-74
2020/12/10 09:27:07;;;;;;;33.43;13.60;;;;;;;-1.59;96.98;100269.50;4931052;29;20223;-74
2020/12/10 09:29:33;;;;;;;39.03;15.97;;;;;;;-1.59;97.30;100266.94;4934380;29;20202;-73
2020/12/10 09:31:59;;;;;;;43.57;14.87;;;;;;;-1.56;97.38;100263.59;4932514;29;20596;-73
2020/12/10 09:34:25;;;;;;;42.37;15.20;;;;;;;-1.49;97.70;100252.63;4932745;29;20207;-73
2020/12/10 09:36:51;;;;;;;36.63;13.93;;;;;;;-1.51;97.30;100259.44;4930437;29;20206;-74
2020/12/10 09:39:17;;;;;;;37.60;15.47;;;;;;;-1.59;96.99;100258.41;4934693;29;20574;-73
2020/12/10 09:41:43;;;;;;;41.80;15.40;;;;;;;-1.60;96.89;100249.00;4931459;29;20219;-73
2020/12/10 09:44:09;;;;;;;38.30;14.70;;;;;;;-1.61;96.79;100252.44;4931772;29;20223;-74
2020/12/10 09:46:35;;;;;;;35.60;13.93;;;;;;;-1.63;96.84;100239.59;4931560;29;20203;-73
2020/12/10 09:49:01;;;;;;;43.53;16.60;;;;;;;-1.63;96.71;100242.16;4937818;28;20683;-73
2020/12/10 09:51:33;;;;;;;40.33;15.37;;;;;;;-1.65;97.04;100235.28;4932160;29;20235;-73
2020/12/10 09:54:05;;;;;;;43.20;15.30;;;;;;;-1.67;97.12;100234.41;4934598;29;20228;-74
2020/12/10 09:56:44;;;;;;;37.70;15.57;;;;;;;-1.62;96.94;100228.56;4963967;28;20199;-74
2020/12/10 09:59:13;;;;;;;43.70;17.37;;;;;;;-1.57;97.25;100234.59;4934068;29;20199;-73
2020/12/10 10:01:44;;;;;;;36.27;13.77;;;;;;;-1.54;97.26;100232.09;4932861;29;20207;-73
2020/12/10 10:04:10;;;;;;;33.17;13.97;;;;;;;-1.49;97.41;100223.66;4963284;28;20556;-74
2020/12/10 10:06:36;;;;;;;40.00;17.13;;;;;;;-1.55;97.04;100221.84;4930390;29;20226;-73
2020/12/10 10:09:04;;;;;;;44.73;17.90;;;;;;;-1.55;96.97;100214.16;4929020;29;20652;-73
2020/12/10 10:11:31;;;;;;;36.23;14.73;;;;;;;-1.47;97.58;100225.38;4932930;29;20771;-73
2020/12/10 10:13:56;;;;;;;36.67;14.57;;;;;;;-1.47;97.10;100216.88;4932084;29;20219;-74
2020/12/10 10:16:26;;;;;;;33.90;13.57;;;;;;;-1.49;96.82;100216.84;4961204;28;20657;-74
2020/12/10 10:18:52;;;;;;;36.67;13.97;;;;;;;-1.49;96.92;100210.88;4928634;29;21637;-74
2020/12/10 10:21:18;;;;;;;43.70;15.77;;;;;;;-1.55;97.21;100211.59;4929507;29;20212;-73
2020/12/10 10:23:44;;;;;;;37.47;14.90;;;;;;;-1.54;97.32;100203.97;4930759;28;20226;-73
2020/12/10 10:26:11;;;;;;;43.47;17.53;;;;;;;-1.56;97.67;100209.91;4932268;29;20207;-74
2020/12/10 10:28:37;;;;;;;44.33;17.43;;;;;;;-1.53;97.72;100203.13;4961469;28;20253;-73
2020/12/10 10:31:06;;;;;;;39.87;16.57;;;;;;;-1.55;98.25;100204.81;4932826;29;20199;-73
2020/12/10 10:33:32;;;;;;;45.77;17.97;;;;;;;-1.59;98.39;100200.47;4931690;28;20242;-73
2020/12/10 10:35:58;;;;;;;50.17;17.53;;;;;;;-1.56;98.82;100197.97;4931991;29;20662;-74
2020/12/10 10:38:24;;;;;;;42.17;16.30;;;;;;;-1.56;98.65;100202.22;4929531;29;20203;-74
2020/12/10 10:40:49;;;;;;;38.00;15.93;;;;;;;-1.57;98.92;100196.22;4965813;28;20219;-74
2020/12/10 10:43:16;;;;;;;38.43;14.87;;;;;;;-1.63;98.84;100208.06;4958923;28;20223;-74
2020/12/10 10:45:42;;;;;;;40.60;14.37;;;;;;;-1.59;98.79;100200.47;4933450;29;20199;-74
2020/12/10 10:48:08;;;;;;;37.37;13.60;;;;;;;-1.52;98.81;100197.16;4931723;29;20656;-74
2020/12/10 10:50:34;;;;;;;37.60;13.93;;;;;;;-1.53;98.71;100190.34;4963605;28;20227;-73
2020/12/10 10:53:00;;;;;;;39.37;14.93;;;;;;;-1.54;98.63;100195.44;4932896;28;20267;-73
2020/12/10 10:55:26;;;;;;;45.17;15.30;;;;;;;-1.53;98.80;100192.91;4959923;28;20194;-73
2020/12/10 10:57:52;;;;;;;36.90;13.93;;;;;;;-1.55;98.60;100193.69;4930500;29;20247;-73
2020/12/10 11:00:18;;;;;;;35.17;14.47;;;;;;;-1.54;98.46;100193.72;4931976;29;21052;-73
2020/12/10 11:02:44;;;;;;;44.83;16.33;;;;;;;-1.53;98.58;100185.25;4926989;29;20232;-74
2020/12/10 11:05:10;;;;;;;39.23;15.80;;;;;;;-1.51;98.89;100185.28;4928183;29;20754;-74
2020/12/10 11:07:36;;;;;;;48.83;17.13;;;;;;;-1.57;99.06;100188.56;4929785;29;20223;-73